sensor_id;sensor_type;location;lat;lon;timestamp;temperature;humidity
24250;DHT22;12379;49.820;8.648;2023-05-10T00:00:32;14.50;99.90
24250;DHT22;12379;49.820;8.648;2023-05-10T00:02:58;14.60;99.90
24250;DHT22;12379;49.820;8.648;2023-05-10T00:05:23;14.60;99.90
24250;DHT22;12379;49.820;8.648;2023-05-10T00:07:49;14.60;99.90
24250;DHT22;12379;49.820;8.648;2023-05-10T00:10:14;14.50;99.90
24250;DHT22;12379;49.820;8.648;2023-05-10T00:12:40;14.50;99.90
24250;DHT22;12379;49.820;8.648;2023-05-10T00:15:06;14.40;99.90
24250;DHT22;12379;49.820;8.648;2023-05-10T00:17:32;14.50;99.90
24250;DHT22;12379;49.820;8.648;2023-05-10T00:19:57;14.50;99.90
24250;DHT22;12379;49.820;8.648;2023-05-10T00:22:23;14.60;99.90
24250;DHT22;12379;49.820;8.648;2023-05-10T00:24:48;14.60;99.90
24250;DHT22;12379;49.820;8.648;2023-05-10T00:27:14;14.70;99.90
24250;DHT22;12379;49.820;8.648;2023-05-10T00:29:39;14.70;99.90
24250;DHT22;12379;49.820;8.648;2023-05-10T00:32:05;14.70;99.90
24250;DHT22;12379;49.820;8.648;2023-05-10T00:34:31;14.70;99.90
24250;DHT22;12379;49.820;8.648;2023-05-10T00:36:57;14.70;99.90
24250;DHT22;12379;49.820;8.648;2023-05-10T00:39:23;14.70;99.90
24250;DHT22;12379;49.820;8.648;2023-05-10T00:41:48;14.70;99.90
24250;DHT22;12379;49.820;8.648;2023-05-10T00:44:14;14.70;99.90
24250;DHT22;12379;49.820;8.648;2023-05-10T00:46:40;14.60;99.90
24250;DHT22;12379;49.820;8.648;2023-05-10T00:49:06;14.70;99.90
24250;DHT22;12379;49.820;8.648;2023-05-10T00:51:32;14.70;99.90
24250;DHT22;12379;49.820;8.648;2023-05-10T00:53:58;14.60;99.90
24250;DHT22;12379;49.820;8.648;2023-05-10T00:56:24;14.60;99.90
24250;DHT22;12379;49.820;8.648;2023-05-10T00:58:50;14.60;99.90
24250;DHT22;12379;49.820;8.648;2023-05-10T01:01:16;14.60;99.90
24250;DHT22;12379;49.820;8.648;2023-05-10T01:03:41;14.50;99.90
24250;DHT22;12379;49.820;8.648;2023-05-10T01:06:07;14.50;99.90
24250;DHT22;12379;49.820;8.648;2023-05-10T01:08:33;14.50;99.90
24250;DHT22;12379;49.820;8.648;2023-05-10T01:10:59;14.40;99.90
24250;DHT22;12379;49.820;8.648;2023-05-10T01:13:36;14.40;99.90
24250;DHT22;12379;49.820;8.648;2023-05-10T01:16:03;14.40;99.90
24250;DHT22;12379;49.820;8.648;2023-05-10T01:18:31;14.40;99.90
24250;DHT22;12379;49.820;8.648;2023-05-10T01:23:52;14.30;99.90
24250;DHT22;12379;49.820;8.648;2023-05-10T01:34:58;14.30;99.90
24250;DHT22;12379;49.820;8.648;2023-05-10T01:40:29;14.30;99.90
24250;DHT22;12379;49.820;8.648;2023-05-10T01:43:03;14.30;99.90
24250;DHT22;12379;49.820;8.648;2023-05-10T01:45:33;14.30;99.90
24250;DHT22;12379;49.820;8.648;2023-05-10T01:48:07;14.20;99.90
24250;DHT22;12379;49.820;8.648;2023-05-10T01:50:36;14.20;99.90
24250;DHT22;12379;49.820;8.648;2023-05-10T01:53:06;14.20;99.90
24250;DHT22;12379;49.820;8.648;2023-05-10T01:55:35;14.20;99.90
24250;DHT22;12379;49.820;8.648;2023-05-10T01:58:05;14.20;99.90
24250;DHT22;12379;49.820;8.648;2023-05-10T02:00:32;14.20;99.90
24250;DHT22;12379;49.820;8.648;2023-05-10T02:02:59;14.20;99.90
24250;DHT22;12379;49.820;8.648;2023-05-10T02:05:26;14.10;99.90
24250;DHT22;12379;49.820;8.648;2023-05-10T02:07:54;14.10;99.90
24250;DHT22;12379;49.820;8.648;2023-05-10T02:10:21;14.10;99.90
24250;DHT22;12379;49.820;8.648;2023-05-10T02:12:48;14.10;99.90
24250;DHT22;12379;49.820;8.648;2023-05-10T02:15:19;14.20;99.90
24250;DHT22;12379;49.820;8.648;2023-05-10T02:17:47;14.10;99.90
24250;DHT22;12379;49.820;8.648;2023-05-10T02:20:13;14.10;99.90
24250;DHT22;12379;49.820;8.648;2023-05-10T02:22:41;14.10;99.90
24250;DHT22;12379;49.820;8.648;2023-05-10T02:25:08;14.10;99.90
24250;DHT22;12379;49.820;8.648;2023-05-10T02:27:34;14.10;99.90
24250;DHT22;12379;49.820;8.648;2023-05-10T02:30:01;14.10;99.90
24250;DHT22;12379;49.820;8.648;2023-05-10T02:32:28;14.10;99.90
24250;DHT22;12379;49.820;8.648;2023-05-10T02:34:55;14.10;99.90
24250;DHT22;12379;49.820;8.648;2023-05-10T02:37:21;14.10;99.90
24250;DHT22;12379;49.820;8.648;2023-05-10T02:39:52;14.10;99.90
24250;DHT22;12379;49.820;8.648;2023-05-10T02:42:24;14.10;99.90
24250;DHT22;12379;49.820;8.648;2023-05-10T02:44:56;14.00;99.90
24250;DHT22;12379;49.820;8.648;2023-05-10T02:47:24;14.00;99.90
24250;DHT22;12379;49.820;8.648;2023-05-10T02:49:50;14.00;99.90
24250;DHT22;12379;49.820;8.648;2023-05-10T02:52:19;14.00;99.90
24250;DHT22;12379;49.820;8.648;2023-05-10T02:54:49;14.00;99.90
24250;DHT22;12379;49.820;8.648;2023-05-10T02:57:17;14.00;99.90
24250;DHT22;12379;49.820;8.648;2023-05-10T02:59:45;14.00;99.90
24250;DHT22;12379;49.820;8.648;2023-05-10T03:02:12;14.00;99.90
24250;DHT22;12379;49.820;8.648;2023-05-10T03:04:38;13.90;99.90
24250;DHT22;12379;49.820;8.648;2023-05-10T03:07:04;13.90;99.90
24250;DHT22;12379;49.820;8.648;2023-05-10T03:09:30;14.00;99.90
24250;DHT22;12379;49.820;8.648;2023-05-10T03:17:30;13.90;99.90
24250;DHT22;12379;49.820;8.648;2023-05-10T03:19:57;13.90;99.90
24250;DHT22;12379;49.820;8.648;2023-05-10T03:22:26;13.90;99.90
24250;DHT22;12379;49.820;8.648;2023-05-10T03:24:56;14.00;99.90
24250;DHT22;12379;49.820;8.648;2023-05-10T03:27:26;14.00;99.90
24250;DHT22;12379;49.820;8.648;2023-05-10T03:29:53;14.10;99.90
24250;DHT22;12379;49.820;8.648;2023-05-10T03:32:20;14.00;99.90
24250;DHT22;12379;49.820;8.648;2023-05-10T03:34:45;14.00;99.90
24250;DHT22;12379;49.820;8.648;2023-05-10T03:37:11;13.90;99.90
24250;DHT22;12379;49.820;8.648;2023-05-10T03:39:36;14.00;99.90
24250;DHT22;12379;49.820;8.648;2023-05-10T03:42:02;14.00;99.90
24250;DHT22;12379;49.820;8.648;2023-05-10T03:44:27;13.90;99.90
24250;DHT22;12379;49.820;8.648;2023-05-10T03:46:53;13.90;99.90
24250;DHT22;12379;49.820;8.648;2023-05-10T03:49:19;13.90;99.90
24250;DHT22;12379;49.820;8.648;2023-05-10T03:51:44;13.90;99.90
24250;DHT22;12379;49.820;8.648;2023-05-10T03:54:10;13.90;99.90
24250;DHT22;12379;49.820;8.648;2023-05-10T03:56:35;13.90;99.90
24250;DHT22;12379;49.820;8.648;2023-05-10T03:59:01;13.90;99.90
24250;DHT22;12379;49.820;8.648;2023-05-10T04:01:26;13.90;99.90
24250;DHT22;12379;49.820;8.648;2023-05-10T04:03:52;13.90;99.90
24250;DHT22;12379;49.820;8.648;2023-05-10T04:06:17;13.90;99.90
24250;DHT22;12379;49.820;8.648;2023-05-10T04:08:43;13.90;99.90
24250;DHT22;12379;49.820;8.648;2023-05-10T04:11:10;13.90;99.90
24250;DHT22;12379;49.820;8.648;2023-05-10T04:13:36;13.90;99.90
24250;DHT22;12379;49.820;8.648;2023-05-10T04:16:02;13.90;99.90
24250;DHT22;12379;49.820;8.648;2023-05-10T04:18:28;13.90;99.90
24250;DHT22;12379;49.820;8.648;2023-05-10T04:20:53;13.90;99.90
24250;DHT22;12379;49.820;8.648;2023-05-10T04:23:19;13.90;99.90
24250;DHT22;12379;49.820;8.648;2023-05-10T04:25:44;13.90;99.90
24250;DHT22;12379;49.820;8.648;2023-05-10T04:28:10;13.90;99.90
24250;DHT22;12379;49.820;8.648;2023-05-10T04:30:36;13.90;99.90
24250;DHT22;12379;49.820;8.648;2023-05-10T04:33:01;13.90;99.90
24250;DHT22;12379;49.820;8.648;2023-05-10T04:35:29;14.00;99.90
24250;DHT22;12379;49.820;8.648;2023-05-10T04:37:55;14.00;99.90
24250;DHT22;12379;49.820;8.648;2023-05-10T04:40:21;14.00;99.90
24250;DHT22;12379;49.820;8.648;2023-05-10T04:42:47;14.00;99.90
24250;DHT22;12379;49.820;8.648;2023-05-10T04:45:12;14.00;99.90
24250;DHT22;12379;49.820;8.648;2023-05-10T04:47:40;14.00;99.90
24250;DHT22;12379;49.820;8.648;2023-05-10T04:50:06;14.00;99.90
24250;DHT22;12379;49.820;8.648;2023-05-10T04:52:31;14.00;99.90
24250;DHT22;12379;49.820;8.648;2023-05-10T04:54:57;14.00;99.90
24250;DHT22;12379;49.820;8.648;2023-05-10T04:57:23;14.00;99.90
24250;DHT22;12379;49.820;8.648;2023-05-10T04:59:48;14.10;99.90
24250;DHT22;12379;49.820;8.648;2023-05-10T05:02:14;14.10;99.90
24250;DHT22;12379;49.820;8.648;2023-05-10T05:04:39;14.10;99.90
24250;DHT22;12379;49.820;8.648;2023-05-10T05:07:05;14.10;99.90
24250;DHT22;12379;49.820;8.648;2023-05-10T05:09:31;14.10;99.90
24250;DHT22;12379;49.820;8.648;2023-05-10T05:11:57;14.10;99.90
24250;DHT22;12379;49.820;8.648;2023-05-10T05:14:23;14.10;99.90
24250;DHT22;12379;49.820;8.648;2023-05-10T05:16:51;14.10;99.90
24250;DHT22;12379;49.820;8.648;2023-05-10T05:19:16;14.10;99.90
24250;DHT22;12379;49.820;8.648;2023-05-10T05:21:42;14.10;99.90
24250;DHT22;12379;49.820;8.648;2023-05-10T05:24:08;14.10;99.90
24250;DHT22;12379;49.820;8.648;2023-05-10T05:26:35;14.10;99.90
24250;DHT22;12379;49.820;8.648;2023-05-10T05:29:01;14.10;99.90
24250;DHT22;12379;49.820;8.648;2023-05-10T05:31:26;14.10;99.90
24250;DHT22;12379;49.820;8.648;2023-05-10T05:33:52;14.10;99.90
24250;DHT22;12379;49.820;8.648;2023-05-10T05:36:17;14.20;99.90
24250;DHT22;12379;49.820;8.648;2023-05-10T05:38:43;14.30;99.90
24250;DHT22;12379;49.820;8.648;2023-05-10T05:41:08;14.30;99.90
24250;DHT22;12379;49.820;8.648;2023-05-10T05:43:34;14.30;99.90
24250;DHT22;12379;49.820;8.648;2023-05-10T05:46:00;14.30;99.90
24250;DHT22;12379;49.820;8.648;2023-05-10T05:48:25;14.30;99.90
24250;DHT22;12379;49.820;8.648;2023-05-10T05:50:54;14.30;99.90
24250;DHT22;12379;49.820;8.648;2023-05-10T05:53:21;14.40;99.90
24250;DHT22;12379;49.820;8.648;2023-05-10T05:55:53;14.50;99.90
24250;DHT22;12379;49.820;8.648;2023-05-10T05:58:20;14.50;99.90
24250;DHT22;12379;49.820;8.648;2023-05-10T06:00:45;14.60;99.90
24250;DHT22;12379;49.820;8.648;2023-05-10T06:03:11;14.70;99.90
24250;DHT22;12379;49.820;8.648;2023-05-10T06:05:37;14.60;99.90
24250;DHT22;12379;49.820;8.648;2023-05-10T06:08:03;14.60;99.90
24250;DHT22;12379;49.820;8.648;2023-05-10T06:10:28;14.60;99.90
24250;DHT22;12379;49.820;8.648;2023-05-10T06:12:54;14.70;99.90
24250;DHT22;12379;49.820;8.648;2023-05-10T06:15:19;14.70;99.90
24250;DHT22;12379;49.820;8.648;2023-05-10T06:17:45;14.90;99.90
24250;DHT22;12379;49.820;8.648;2023-05-10T06:20:12;14.90;99.90
24250;DHT22;12379;49.820;8.648;2023-05-10T06:22:38;15.10;99.90
24250;DHT22;12379;49.820;8.648;2023-05-10T06:25:04;15.20;99.90
24250;DHT22;12379;49.820;8.648;2023-05-10T06:27:30;15.40;99.90
24250;DHT22;12379;49.820;8.648;2023-05-10T06:29:55;15.60;99.90
24250;DHT22;12379;49.820;8.648;2023-05-10T06:32:21;15.70;99.90
24250;DHT22;12379;49.820;8.648;2023-05-10T06:34:46;15.70;99.90
24250;DHT22;12379;49.820;8.648;2023-05-10T06:37:12;15.60;99.90
24250;DHT22;12379;49.820;8.648;2023-05-10T06:39:37;15.50;99.90
24250;DHT22;12379;49.820;8.648;2023-05-10T06:42:03;15.40;99.90
24250;DHT22;12379;49.820;8.648;2023-05-10T06:44:29;15.30;99.90
24250;DHT22;12379;49.820;8.648;2023-05-10T06:46:55;15.40;99.90
24250;DHT22;12379;49.820;8.648;2023-05-10T06:49:21;15.40;99.90
24250;DHT22;12379;49.820;8.648;2023-05-10T06:51:47;15.40;99.90
24250;DHT22;12379;49.820;8.648;2023-05-10T06:54:12;15.50;99.90
24250;DHT22;12379;49.820;8.648;2023-05-10T06:56:38;15.60;99.90
24250;DHT22;12379;49.820;8.648;2023-05-10T06:59:03;15.60;99.90
24250;DHT22;12379;49.820;8.648;2023-05-10T07:01:29;15.70;99.90
24250;DHT22;12379;49.820;8.648;2023-05-10T07:03:54;15.70;99.90
24250;DHT22;12379;49.820;8.648;2023-05-10T07:06:20;15.80;99.90
24250;DHT22;12379;49.820;8.648;2023-05-10T07:08:49;15.80;99.90
24250;DHT22;12379;49.820;8.648;2023-05-10T07:11:14;15.90;99.90
24250;DHT22;12379;49.820;8.648;2023-05-10T07:13:40;15.90;99.90
24250;DHT22;12379;49.820;8.648;2023-05-10T07:16:09;15.90;99.90
24250;DHT22;12379;49.820;8.648;2023-05-10T07:18:35;15.80;99.90
24250;DHT22;12379;49.820;8.648;2023-05-10T07:21:01;15.70;99.90
24250;DHT22;12379;49.820;8.648;2023-05-10T07:23:27;15.80;99.90
24250;DHT22;12379;49.820;8.648;2023-05-10T07:25:53;15.80;99.90
24250;DHT22;12379;49.820;8.648;2023-05-10T07:28:19;16.00;99.90
24250;DHT22;12379;49.820;8.648;2023-05-10T07:30:44;16.00;99.90
24250;DHT22;12379;49.820;8.648;2023-05-10T07:33:12;16.00;99.90
24250;DHT22;12379;49.820;8.648;2023-05-10T07:35:38;16.10;99.90
24250;DHT22;12379;49.820;8.648;2023-05-10T07:38:03;16.20;99.90
24250;DHT22;12379;49.820;8.648;2023-05-10T07:40:29;16.30;99.90
24250;DHT22;12379;49.820;8.648;2023-05-10T07:42:55;16.40;99.90
24250;DHT22;12379;49.820;8.648;2023-05-10T07:45:21;16.30;99.90
24250;DHT22;12379;49.820;8.648;2023-05-10T07:47:47;16.40;99.90
24250;DHT22;12379;49.820;8.648;2023-05-10T07:50:13;16.60;99.90
24250;DHT22;12379;49.820;8.648;2023-05-10T07:52:38;16.70;99.90
24250;DHT22;12379;49.820;8.648;2023-05-10T07:55:04;16.80;99.90
24250;DHT22;12379;49.820;8.648;2023-05-10T07:57:30;16.60;99.90
24250;DHT22;12379;49.820;8.648;2023-05-10T07:59:56;16.40;99.90
24250;DHT22;12379;49.820;8.648;2023-05-10T08:02:21;16.30;99.90
24250;DHT22;12379;49.820;8.648;2023-05-10T08:04:47;16.20;99.90
24250;DHT22;12379;49.820;8.648;2023-05-10T08:07:12;16.20;99.90
24250;DHT22;12379;49.820;8.648;2023-05-10T08:09:38;16.20;99.90
24250;DHT22;12379;49.820;8.648;2023-05-10T08:12:04;16.10;99.90
24250;DHT22;12379;49.820;8.648;2023-05-10T08:14:29;16.00;99.90
24250;DHT22;12379;49.820;8.648;2023-05-10T08:16:55;15.90;99.90
24250;DHT22;12379;49.820;8.648;2023-05-10T08:19:21;15.90;99.90
24250;DHT22;12379;49.820;8.648;2023-05-10T08:21:48;15.80;99.90
24250;DHT22;12379;49.820;8.648;2023-05-10T08:24:14;15.70;99.90
24250;DHT22;12379;49.820;8.648;2023-05-10T08:26:39;15.70;99.90
24250;DHT22;12379;49.820;8.648;2023-05-10T08:29:05;15.70;99.90
24250;DHT22;12379;49.820;8.648;2023-05-10T08:31:30;15.70;99.90
24250;DHT22;12379;49.820;8.648;2023-05-10T08:33:56;15.70;99.90
24250;DHT22;12379;49.820;8.648;2023-05-10T08:36:22;15.70;99.90
24250;DHT22;12379;49.820;8.648;2023-05-10T08:38:52;15.70;99.90
24250;DHT22;12379;49.820;8.648;2023-05-10T08:41:21;15.70;99.90
24250;DHT22;12379;49.820;8.648;2023-05-10T08:43:50;15.80;99.90
24250;DHT22;12379;49.820;8.648;2023-05-10T08:46:18;15.90;99.90
24250;DHT22;12379;49.820;8.648;2023-05-10T08:48:48;16.00;99.90
24250;DHT22;12379;49.820;8.648;2023-05-10T08:51:18;16.30;99.90
24250;DHT22;12379;49.820;8.648;2023-05-10T08:53:45;16.70;99.90
24250;DHT22;12379;49.820;8.648;2023-05-10T08:56:11;17.40;99.90
24250;DHT22;12379;49.820;8.648;2023-05-10T08:58:37;18.40;99.90
24250;DHT22;12379;49.820;8.648;2023-05-10T09:01:03;18.40;99.90
24250;DHT22;12379;49.820;8.648;2023-05-10T09:03:30;18.10;99.90
24250;DHT22;12379;49.820;8.648;2023-05-10T09:05:56;17.70;99.90
24250;DHT22;12379;49.820;8.648;2023-05-10T09:08:23;17.50;99.90
24250;DHT22;12379;49.820;8.648;2023-05-10T09:10:52;17.60;99.90
24250;DHT22;12379;49.820;8.648;2023-05-10T09:13:19;17.60;99.90
24250;DHT22;12379;49.820;8.648;2023-05-10T09:15:46;17.60;99.90
24250;DHT22;12379;49.820;8.648;2023-05-10T09:18:12;17.80;99.90
24250;DHT22;12379;49.820;8.648;2023-05-10T09:20:38;17.80;99.90
24250;DHT22;12379;49.820;8.648;2023-05-10T09:23:03;17.90;99.90
24250;DHT22;12379;49.820;8.648;2023-05-10T09:25:29;17.90;99.90
24250;DHT22;12379;49.820;8.648;2023-05-10T09:27:55;17.80;99.90
24250;DHT22;12379;49.820;8.648;2023-05-10T09:30:28;17.60;99.90
24250;DHT22;12379;49.820;8.648;2023-05-10T09:32:56;17.50;99.90
24250;DHT22;12379;49.820;8.648;2023-05-10T09:35:24;17.40;99.90
24250;DHT22;12379;49.820;8.648;2023-05-10T09:37:52;17.30;99.90
24250;DHT22;12379;49.820;8.648;2023-05-10T09:40:21;17.20;99.90
24250;DHT22;12379;49.820;8.648;2023-05-10T09:43:04;17.10;99.90
24250;DHT22;12379;49.820;8.648;2023-05-10T09:45:32;17.00;99.90
24250;DHT22;12379;49.820;8.648;2023-05-10T09:47:59;16.90;99.90
24250;DHT22;12379;49.820;8.648;2023-05-10T09:50:26;16.80;99.90
24250;DHT22;12379;49.820;8.648;2023-05-10T09:52:53;16.70;99.90
24250;DHT22;12379;49.820;8.648;2023-05-10T09:55:38;16.60;99.90
24250;DHT22;12379;49.820;8.648;2023-05-10T09:58:04;16.60;99.90
24250;DHT22;12379;49.820;8.648;2023-05-10T10:00:36;16.60;99.90
24250;DHT22;12379;49.820;8.648;2023-05-10T10:03:03;16.60;99.90
24250;DHT22;12379;49.820;8.648;2023-05-10T10:05:30;16.50;99.90
24250;DHT22;12379;49.820;8.648;2023-05-10T10:07:57;16.60;99.90
24250;DHT22;12379;49.820;8.648;2023-05-10T10:10:24;16.60;99.90
24250;DHT22;12379;49.820;8.648;2023-05-10T10:12:51;16.70;99.90
24250;DHT22;12379;49.820;8.648;2023-05-10T10:15:16;16.90;99.90
24250;DHT22;12379;49.820;8.648;2023-05-10T10:17:43;17.00;99.90
24250;DHT22;12379;49.820;8.648;2023-05-10T10:20:09;17.30;99.90
24250;DHT22;12379;49.820;8.648;2023-05-10T10:22:37;17.70;99.90
24250;DHT22;12379;49.820;8.648;2023-05-10T10:25:03;18.00;99.90
24250;DHT22;12379;49.820;8.648;2023-05-10T10:30:45;18.10;99.90
24250;DHT22;12379;49.820;8.648;2023-05-10T10:35:58;18.20;99.90
24250;DHT22;12379;49.820;8.648;2023-05-10T10:38:25;18.30;99.90
24250;DHT22;12379;49.820;8.648;2023-05-10T10:41:09;18.30;99.90
24250;DHT22;12379;49.820;8.648;2023-05-10T10:43:35;18.30;99.90
24250;DHT22;12379;49.820;8.648;2023-05-10T10:46:15;18.50;99.90
24250;DHT22;12379;49.820;8.648;2023-05-10T10:48:48;18.40;99.90
24250;DHT22;12379;49.820;8.648;2023-05-10T10:51:14;18.30;99.90
24250;DHT22;12379;49.820;8.648;2023-05-10T10:53:40;18.20;99.90
24250;DHT22;12379;49.820;8.648;2023-05-10T10:56:11;18.20;99.90
24250;DHT22;12379;49.820;8.648;2023-05-10T10:58:38;18.40;99.90
24250;DHT22;12379;49.820;8.648;2023-05-10T11:01:17;18.40;99.90
24250;DHT22;12379;49.820;8.648;2023-05-10T11:06:35;18.00;99.90
24250;DHT22;12379;49.820;8.648;2023-05-10T11:09:08;17.70;99.90
24250;DHT22;12379;49.820;8.648;2023-05-10T11:11:35;17.40;99.90
24250;DHT22;12379;49.820;8.648;2023-05-10T11:14:07;17.30;99.90
24250;DHT22;12379;49.820;8.648;2023-05-10T11:16:43;17.20;99.90
24250;DHT22;12379;49.820;8.648;2023-05-10T11:19:11;17.20;99.90
24250;DHT22;12379;49.820;8.648;2023-05-10T11:24:20;17.20;99.90
24250;DHT22;12379;49.820;8.648;2023-05-10T11:26:46;17.30;99.90
24250;DHT22;12379;49.820;8.648;2023-05-10T11:29:15;17.50;99.90
24250;DHT22;12379;49.820;8.648;2023-05-10T11:31:44;17.80;99.90
24250;DHT22;12379;49.820;8.648;2023-05-10T11:34:11;18.30;99.90
24250;DHT22;12379;49.820;8.648;2023-05-10T11:36:37;18.50;99.90
24250;DHT22;12379;49.820;8.648;2023-05-10T11:39:03;18.50;99.90
24250;DHT22;12379;49.820;8.648;2023-05-10T11:41:30;18.70;99.90
24250;DHT22;12379;49.820;8.648;2023-05-10T11:43:56;18.80;99.90
24250;DHT22;12379;49.820;8.648;2023-05-10T11:46:24;19.00;99.90
24250;DHT22;12379;49.820;8.648;2023-05-10T11:48:52;19.20;99.90
24250;DHT22;12379;49.820;8.648;2023-05-10T11:51:33;19.20;99.90
24250;DHT22;12379;49.820;8.648;2023-05-10T11:53:59;19.10;99.90
24250;DHT22;12379;49.820;8.648;2023-05-10T11:56:25;19.20;99.90
24250;DHT22;12379;49.820;8.648;2023-05-10T11:58:56;19.40;99.90
24250;DHT22;12379;49.820;8.648;2023-05-10T12:01:24;19.40;99.90
24250;DHT22;12379;49.820;8.648;2023-05-10T12:03:50;19.40;99.90
24250;DHT22;12379;49.820;8.648;2023-05-10T12:06:18;19.40;99.90
24250;DHT22;12379;49.820;8.648;2023-05-10T12:08:48;19.10;99.90
24250;DHT22;12379;49.820;8.648;2023-05-10T12:11:17;19.10;99.90
24250;DHT22;12379;49.820;8.648;2023-05-10T12:13:44;19.20;99.90
24250;DHT22;12379;49.820;8.648;2023-05-10T12:16:17;19.20;99.90
24250;DHT22;12379;49.820;8.648;2023-05-10T12:18:44;19.30;99.90
24250;DHT22;12379;49.820;8.648;2023-05-10T12:21:10;19.10;99.30
24250;DHT22;12379;49.820;8.648;2023-05-10T12:23:37;19.30;99.90
24250;DHT22;12379;49.820;8.648;2023-05-10T12:26:04;19.50;99.90
24250;DHT22;12379;49.820;8.648;2023-05-10T12:28:31;19.60;99.80
24250;DHT22;12379;49.820;8.648;2023-05-10T12:30:57;19.80;99.90
24250;DHT22;12379;49.820;8.648;2023-05-10T12:33:24;19.90;99.90
24250;DHT22;12379;49.820;8.648;2023-05-10T12:35:53;20.00;99.90
24250;DHT22;12379;49.820;8.648;2023-05-10T12:38:26;19.90;99.90
24250;DHT22;12379;49.820;8.648;2023-05-10T12:40:55;19.80;99.90
24250;DHT22;12379;49.820;8.648;2023-05-10T12:43:20;19.80;99.70
24250;DHT22;12379;49.820;8.648;2023-05-10T12:45:47;19.80;99.30
24250;DHT22;12379;49.820;8.648;2023-05-10T12:48:14;19.70;99.60
24250;DHT22;12379;49.820;8.648;2023-05-10T12:50:40;19.70;99.90
24250;DHT22;12379;49.820;8.648;2023-05-10T12:53:06;19.90;99.90
24250;DHT22;12379;49.820;8.648;2023-05-10T12:55:31;20.10;99.30
24250;DHT22;12379;49.820;8.648;2023-05-10T12:57:57;20.00;99.20
24250;DHT22;12379;49.820;8.648;2023-05-10T13:00:22;19.80;98.90
24250;DHT22;12379;49.820;8.648;2023-05-10T13:02:48;19.80;99.20
24250;DHT22;12379;49.820;8.648;2023-05-10T13:05:14;19.70;99.10
24250;DHT22;12379;49.820;8.648;2023-05-10T13:07:41;19.70;99.40
24250;DHT22;12379;49.820;8.648;2023-05-10T13:10:09;19.60;99.40
24250;DHT22;12379;49.820;8.648;2023-05-10T13:12:34;19.20;99.70
24250;DHT22;12379;49.820;8.648;2023-05-10T13:15:00;19.20;99.90
24250;DHT22;12379;49.820;8.648;2023-05-10T13:17:26;19.10;99.90
24250;DHT22;12379;49.820;8.648;2023-05-10T13:19:51;18.90;99.90
24250;DHT22;12379;49.820;8.648;2023-05-10T13:22:17;18.90;99.90
24250;DHT22;12379;49.820;8.648;2023-05-10T13:24:43;18.90;99.90
24250;DHT22;12379;49.820;8.648;2023-05-10T13:27:08;19.10;99.90
24250;DHT22;12379;49.820;8.648;2023-05-10T13:29:34;19.30;99.90
24250;DHT22;12379;49.820;8.648;2023-05-10T13:32:00;19.50;98.70
24250;DHT22;12379;49.820;8.648;2023-05-10T13:34:26;19.60;98.60
24250;DHT22;12379;49.820;8.648;2023-05-10T13:36:52;19.90;98.10
24250;DHT22;12379;49.820;8.648;2023-05-10T13:39:20;20.00;97.80
24250;DHT22;12379;49.820;8.648;2023-05-10T13:41:46;20.30;97.30
24250;DHT22;12379;49.820;8.648;2023-05-10T13:44:13;20.30;96.60
24250;DHT22;12379;49.820;8.648;2023-05-10T13:46:39;20.40;95.80
24250;DHT22;12379;49.820;8.648;2023-05-10T13:49:05;20.40;96.40
24250;DHT22;12379;49.820;8.648;2023-05-10T13:51:30;20.60;96.90
24250;DHT22;12379;49.820;8.648;2023-05-10T13:53:57;20.50;96.80
24250;DHT22;12379;49.820;8.648;2023-05-10T13:56:23;20.40;95.70
24250;DHT22;12379;49.820;8.648;2023-05-10T13:58:49;20.30;95.70
24250;DHT22;12379;49.820;8.648;2023-05-10T14:01:14;20.20;96.30
24250;DHT22;12379;49.820;8.648;2023-05-10T14:03:40;20.30;96.20
24250;DHT22;12379;49.820;8.648;2023-05-10T14:06:06;20.40;96.80
24250;DHT22;12379;49.820;8.648;2023-05-10T14:08:33;20.50;96.50
24250;DHT22;12379;49.820;8.648;2023-05-10T14:10:59;20.50;96.60
24250;DHT22;12379;49.820;8.648;2023-05-10T14:13:26;20.50;96.40
24250;DHT22;12379;49.820;8.648;2023-05-10T14:15:53;20.60;96.80
24250;DHT22;12379;49.820;8.648;2023-05-10T14:18:19;20.70;96.30
24250;DHT22;12379;49.820;8.648;2023-05-10T14:20:44;20.70;96.00
24250;DHT22;12379;49.820;8.648;2023-05-10T14:23:10;20.70;96.20
24250;DHT22;12379;49.820;8.648;2023-05-10T14:25:36;20.70;96.40
24250;DHT22;12379;49.820;8.648;2023-05-10T14:28:01;20.70;95.80
24250;DHT22;12379;49.820;8.648;2023-05-10T14:30:27;20.50;96.00
24250;DHT22;12379;49.820;8.648;2023-05-10T14:32:52;20.50;96.00
24250;DHT22;12379;49.820;8.648;2023-05-10T14:35:19;20.30;94.80
24250;DHT22;12379;49.820;8.648;2023-05-10T14:37:45;20.20;96.20
24250;DHT22;12379;49.820;8.648;2023-05-10T14:40:11;20.00;95.50
24250;DHT22;12379;49.820;8.648;2023-05-10T14:42:37;20.10;96.60
24250;DHT22;12379;49.820;8.648;2023-05-10T14:45:04;20.00;96.40
24250;DHT22;12379;49.820;8.648;2023-05-10T14:47:30;20.00;96.60
24250;DHT22;12379;49.820;8.648;2023-05-10T14:49:55;19.80;96.50
24250;DHT22;12379;49.820;8.648;2023-05-10T14:52:21;19.70;96.10
24250;DHT22;12379;49.820;8.648;2023-05-10T14:54:46;19.70;96.10
24250;DHT22;12379;49.820;8.648;2023-05-10T14:57:12;19.80;95.30
24250;DHT22;12379;49.820;8.648;2023-05-10T14:59:38;19.80;94.90
24250;DHT22;12379;49.820;8.648;2023-05-10T15:02:04;19.80;94.70
24250;DHT22;12379;49.820;8.648;2023-05-10T15:04:30;19.80;94.00
24250;DHT22;12379;49.820;8.648;2023-05-10T15:06:55;19.90;94.70
24250;DHT22;12379;49.820;8.648;2023-05-10T15:09:24;19.90;96.80
24250;DHT22;12379;49.820;8.648;2023-05-10T15:11:50;19.80;96.90
24250;DHT22;12379;49.820;8.648;2023-05-10T15:14:16;19.70;96.80
24250;DHT22;12379;49.820;8.648;2023-05-10T15:16:41;19.70;96.70
24250;DHT22;12379;49.820;8.648;2023-05-10T15:19:08;19.70;96.40
24250;DHT22;12379;49.820;8.648;2023-05-10T15:21:35;19.80;97.20
24250;DHT22;12379;49.820;8.648;2023-05-10T15:24:07;19.80;96.20
24250;DHT22;12379;49.820;8.648;2023-05-10T15:26:33;19.80;95.70
24250;DHT22;12379;49.820;8.648;2023-05-10T15:28:58;19.80;96.10
24250;DHT22;12379;49.820;8.648;2023-05-10T15:31:24;19.80;95.50
24250;DHT22;12379;49.820;8.648;2023-05-10T15:33:49;19.80;95.50
24250;DHT22;12379;49.820;8.648;2023-05-10T15:36:15;19.80;96.20
24250;DHT22;12379;49.820;8.648;2023-05-10T15:38:43;19.80;96.60
24250;DHT22;12379;49.820;8.648;2023-05-10T15:41:09;19.80;96.10
24250;DHT22;12379;49.820;8.648;2023-05-10T15:43:34;19.70;95.40
24250;DHT22;12379;49.820;8.648;2023-05-10T15:46:00;19.60;96.00
24250;DHT22;12379;49.820;8.648;2023-05-10T15:48:25;19.50;95.80
24250;DHT22;12379;49.820;8.648;2023-05-10T15:50:51;19.50;96.10
24250;DHT22;12379;49.820;8.648;2023-05-10T15:53:16;19.40;95.70
24250;DHT22;12379;49.820;8.648;2023-05-10T15:55:42;19.40;96.20
24250;DHT22;12379;49.820;8.648;2023-05-10T15:58:08;19.50;96.40